Placita, New Mexico
Current Conditions -  °F | °C
As of 9:15 PM on Sunday 21 Dec 2014 (Local Time) from KSKX Reporting Station
Broken Clouds Broken Clouds  
Wind Chill: 28°   Ceiling: 3600
Heat Index: 28°   Visibility: 10mi
Dew Point: 25°   Wind: 3mph
Humidity: 86%   Direction: 80°E
Pressure: 29.87"   Gusts: NA
Location:  36.1892°N, 105.688°W
Report Text: KSKX 220415Z AUTO 08003KT 10SM BKN036 M02/M04 A2987 RMK AO1
Loading
Personal Weather Stations






























Interactive Weather Map New forecast layout! Learn more

10-Day Weather Forecast

Advertisements
Track Severe Weather on mobile